Time;durP1;ratioP1;P1;durP2;ratioP2;P2;SDS_P1;SDS_P2;PMS_P1;PMS_P2;Temp;Humidity;BMP_temperature;BMP_pressure;BME280_temperature;BME280_humidity;BME280_pressure;Samples;Min_cycle;Max_cycle;Signal;HPM_P1;HPM_P2
2022/05/05 05:00:33;;;;;;;10.20;9.30;;;13.40;97.20;;;;;;1720625;28;20224;-74
2022/05/05 05:01:23;;;;;;;9.70;8.95;;;13.40;97.20;;;;;;1720561;28;20296;-73
2022/05/05 05:02:15;;;;;;;10.10;9.30;;;13.40;97.20;;;;;;1720683;28;20656;-74
2022/05/05 05:03:32;;;;;;;9.38;8.68;;;13.50;97.20;;;;;;1720525;28;20239;-74
2022/05/05 05:04:18;;;;;;;10.40;9.60;;;13.50;97.20;;;;;;1721278;28;20735;-75
2022/05/05 05:05:09;;;;;;;9.52;8.73;;;13.50;97.20;;;;;;1721947;28;20201;-75
2022/05/05 05:06:01;;;;;;;9.33;8.53;;;13.50;97.20;;;;;;1721938;28;20193;-75
2022/05/05 05:06:51;;;;;;;10.30;9.60;;;13.50;97.20;;;;;;1721859;28;20201;-75
2022/05/05 05:07:43;;;;;;;11.90;9.73;;;13.50;97.20;;;;;;1721998;28;20200;-75
2022/05/05 05:08:34;;;;;;;10.35;9.45;;;13.60;97.20;;;;;;1721632;28;20252;-75
2022/05/05 05:09:26;;;;;;;9.03;8.33;;;13.60;97.20;;;;;;1721815;28;20205;-75
2022/05/05 05:10:17;;;;;;;9.95;9.15;;;13.60;97.20;;;;;;1721798;28;20450;-75
2022/05/05 05:11:09;;;;;;;10.80;9.90;;;13.60;97.20;;;;;;1721730;28;20201;-75
2022/05/05 05:11:59;;;;;;;9.70;9.00;;;13.60;97.20;;;;;;1721133;28;20197;-75
2022/05/05 05:12:51;;;;;;;10.37;9.40;;;13.60;97.20;;;;;;1721780;28;20276;-75
2022/05/05 05:13:42;;;;;;;9.57;8.88;;;13.60;97.20;;;;;;1721729;28;20201;-75
2022/05/05 05:14:34;;;;;;;9.37;8.67;;;13.60;97.20;;;;;;1721683;28;20231;-75
2022/05/05 05:15:25;;;;;;;9.23;8.52;;;13.60;97.20;;;;;;1721608;28;20246;-75
2022/05/05 05:16:18;;;;;;;11.30;10.40;;;13.60;97.20;;;;;;1718239;28;20200;-75
2022/05/05 05:17:08;;;;;;;9.10;8.40;;;13.60;97.20;;;;;;1721844;28;20243;-75
2022/05/05 05:18:00;;;;;;;10.47;9.67;;;13.60;97.20;;;;;;1721877;28;20206;-74
2022/05/05 05:18:53;;;;;;;10.15;9.35;;;13.60;97.20;;;;;;1721725;28;20632;-75
2022/05/05 05:19:45;;;;;;;10.85;9.90;;;13.60;97.20;;;;;;1721750;28;20197;-74
2022/05/05 05:20:35;;;;;;;9.93;9.13;;;13.60;97.20;;;;;;1721805;28;20687;-75
2022/05/05 05:21:27;;;;;;;10.07;9.13;;;13.60;97.20;;;;;;1720344;28;20641;-74
2022/05/05 05:22:18;;;;;;;10.40;9.50;;;13.60;97.20;;;;;;1715084;28;20206;-75
2022/05/05 05:23:10;;;;;;;9.83;9.13;;;13.60;97.20;;;;;;1715034;28;20209;-74
2022/05/05 05:24:02;;;;;;;10.10;9.30;;;13.60;97.20;;;;;;1714962;28;20445;-75
2022/05/05 05:24:54;;;;;;;10.60;9.75;;;13.70;97.20;;;;;;1714926;28;20638;-75
2022/05/05 05:25:45;;;;;;;10.20;9.35;;;13.70;97.20;;;;;;1714978;28;20209;-74
2022/05/05 05:26:36;;;;;;;9.83;9.13;;;13.70;97.20;;;;;;1715062;28;20190;-75
2022/05/05 05:27:27;;;;;;;10.00;9.27;;;13.70;97.20;;;;;;1715096;28;20238;-75
2022/05/05 05:28:19;;;;;;;10.30;9.50;;;13.70;97.20;;;;;;1714732;28;20680;-74
2022/05/05 05:29:09;;;;;;;10.00;9.20;;;13.80;97.20;;;;;;1715040;28;20217;-75
2022/05/05 05:30:01;;;;;;;9.77;9.00;;;13.80;97.20;;;;;;1715001;28;20194;-76
2022/05/05 05:30:52;;;;;;;9.60;8.90;;;13.80;97.20;;;;;;1715050;28;20208;-75
2022/05/05 05:31:45;;;;;;;9.80;8.90;;;13.90;97.20;;;;;;1719831;28;20284;-75
2022/05/05 05:32:37;;;;;;;10.13;9.25;;;14.00;97.20;;;;;;1721392;28;20628;-75
2022/05/05 05:33:29;;;;;;;10.25;9.45;;;14.00;97.20;;;;;;1721421;28;20193;-75
2022/05/05 05:34:19;;;;;;;10.15;9.35;;;14.00;97.20;;;;;;1721653;28;20268;-75
2022/05/05 05:35:11;;;;;;;9.27;8.53;;;14.10;97.20;;;;;;1721674;28;20208;-75
2022/05/05 05:36:03;;;;;;;9.88;9.00;;;14.10;97.20;;;;;;1721705;28;20201;-76
2022/05/05 05:36:53;;;;;;;10.27;9.38;;;14.10;97.20;;;;;;1721585;28;20209;-75
2022/05/05 05:37:45;;;;;;;9.70;9.00;;;14.20;97.20;;;;;;1721678;28;20201;-75
2022/05/05 05:38:36;;;;;;;9.55;8.70;;;14.20;97.20;;;;;;1721348;28;20312;-76
2022/05/05 05:39:27;;;;;;;9.50;8.80;;;14.20;97.20;;;;;;1721624;28;20207;-75
2022/05/05 05:40:18;;;;;;;9.73;8.93;;;14.30;97.20;;;;;;1721634;28;20688;-75
2022/05/05 05:41:10;;;;;;;10.10;9.10;;;14.30;97.20;;;;;;1721735;28;20596;-75
2022/05/05 05:42:01;;;;;;;9.35;8.55;;;14.30;97.20;;;;;;1721627;28;20233;-75
2022/05/05 05:42:52;;;;;;;10.70;9.80;;;14.40;97.20;;;;;;1721596;28;20204;-75
2022/05/05 05:43:43;;;;;;;10.13;9.32;;;14.40;97.20;;;;;;1721590;28;20208;-75
2022/05/05 05:44:35;;;;;;;9.40;8.70;;;14.40;97.20;;;;;;1721086;28;20227;-75
2022/05/05 05:45:25;;;;;;;9.95;9.15;;;14.40;97.20;;;;;;1720654;28;20205;-73
2022/05/05 05:46:17;;;;;;;9.50;8.73;;;14.50;97.20;;;;;;1721517;28;20211;-74
2022/05/05 05:47:12;;;;;;;9.15;8.25;;;14.50;97.20;;;;;;1719090;28;20656;-74
2022/05/05 05:48:05;;;;;;;10.45;9.65;;;14.50;97.20;;;;;;1718913;28;20209;-74
2022/05/05 05:48:57;;;;;;;10.23;9.40;;;14.50;97.20;;;;;;1720777;28;20624;-74
2022/05/05 05:49:48;;;;;;;9.65;8.85;;;14.60;97.20;;;;;;1720993;28;20236;-74
2022/05/05 05:50:39;;;;;;;10.33;9.37;;;14.60;97.20;;;;;;1720428;28;20205;-74
2022/05/05 05:51:30;;;;;;;9.75;9.05;;;14.60;97.20;;;;;;1719776;28;20256;-74
2022/05/05 05:52:22;;;;;;;10.37;9.50;;;14.60;97.20;;;;;;1719345;28;20197;-74
2022/05/05 05:53:13;;;;;;;12.43;9.95;;;14.70;97.20;;;;;;1719917;28;20799;-74
2022/05/05 05:54:05;;;;;;;9.73;9.03;;;14.70;97.20;;;;;;1720220;28;20301;-75
2022/05/05 05:54:56;;;;;;;10.27;9.38;;;14.70;97.20;;;;;;1720108;28;20459;-74
2022/05/05 05:55:47;;;;;;;11.70;10.63;;;14.70;97.20;;;;;;1720354;28;20199;-74
2022/05/05 05:56:38;;;;;;;11.63;10.63;;;14.70;97.20;;;;;;1720698;28;20212;-74
2022/05/05 05:57:30;;;;;;;11.10;10.05;;;14.70;97.20;;;;;;1720744;28;20200;-74
2022/05/05 05:58:21;;;;;;;10.63;9.75;;;14.70;97.20;;;;;;1720767;28;20359;-74
2022/05/05 05:59:12;;;;;;;10.97;10.07;;;14.70;97.20;;;;;;1720824;28;20201;-74
2022/05/05 06:00:04;;;;;;;10.32;9.60;;;14.70;97.20;;;;;;1721412;28;20209;-74
2022/05/05 06:00:56;;;;;;;10.40;9.60;;;14.70;97.20;;;;;;1720958;28;20201;-75
2022/05/05 06:04:08;;;;;;;9.98;9.20;;;14.80;97.20;;;;;;1721420;28;20280;-75
2022/05/05 06:05:00;;;;;;;10.10;9.30;;;14.90;97.20;;;;;;1721407;28;20587;-76
2022/05/05 06:05:51;;;;;;;10.20;9.23;;;14.90;97.20;;;;;;1721319;28;20205;-75
2022/05/05 06:06:43;;;;;;;11.07;10.17;;;15.00;97.20;;;;;;1721373;28;20196;-75
2022/05/05 06:07:33;;;;;;;8.55;7.90;;;15.00;97.20;;;;;;1721303;28;20228;-76
2022/05/05 06:08:25;;;;;;;9.80;9.00;;;15.00;97.20;;;;;;1721034;28;20201;-75
2022/05/05 06:09:16;;;;;;;10.35;9.63;;;15.10;97.20;;;;;;1721335;28;20554;-75
2022/05/05 06:10:09;;;;;;;10.95;10.13;;;15.10;97.20;;;;;;1721378;28;20197;-76
2022/05/05 06:10:59;;;;;;;11.27;10.38;;;15.20;97.20;;;;;;1721462;28;20204;-76
2022/05/05 06:11:51;;;;;;;10.60;9.80;;;15.20;97.20;;;;;;1721373;28;20197;-76
2022/05/05 06:12:42;;;;;;;9.85;9.05;;;15.20;97.20;;;;;;1721394;28;20197;-75
2022/05/05 06:13:33;;;;;;;10.03;9.23;;;15.30;97.20;;;;;;1721264;28;20197;-76
2022/05/05 06:14:24;;;;;;;10.57;9.77;;;15.30;97.20;;;;;;1721166;28;20272;-76
2022/05/05 06:15:16;;;;;;;9.80;9.00;;;15.30;97.20;;;;;;1721264;28;20656;-75
2022/05/05 06:16:09;;;;;;;10.43;9.52;;;15.40;97.20;;;;;;1721330;28;20248;-75
2022/05/05 06:17:01;;;;;;;10.90;10.00;;;15.40;97.20;;;;;;1721399;28;20197;-75
2022/05/05 06:17:52;;;;;;;9.30;8.57;;;15.40;97.20;;;;;;1720933;28;20234;-75
2022/05/05 06:18:45;;;;;;;9.90;9.10;;;15.50;97.20;;;;;;1720944;28;20229;-76
2022/05/05 06:19:36;;;;;;;9.85;9.05;;;15.50;97.20;;;;;;1721213;28;20472;-76
2022/05/05 06:20:28;;;;;;;10.13;9.23;;;15.60;97.20;;;;;;1721371;28;20728;-76
2022/05/05 06:21:19;;;;;;;10.43;9.63;;;15.70;97.20;;;;;;1721378;28;20209;-76
2022/05/05 06:22:11;;;;;;;9.87;9.17;;;15.70;97.20;;;;;;1721308;28;20719;-75
2022/05/05 06:23:02;;;;;;;9.68;8.88;;;15.70;97.20;;;;;;1721271;28;20455;-76
2022/05/05 06:23:53;;;;;;;10.90;10.00;;;15.80;97.20;;;;;;1721205;28;20225;-75
2022/05/05 06:24:44;;;;;;;9.90;9.10;;;15.80;97.20;;;;;;1721167;28;20253;-75
2022/05/05 06:25:36;;;;;;;10.17;9.37;;;15.90;97.20;;;;;;1721237;28;20208;-76
2022/05/05 06:26:27;;;;;;;9.80;8.90;;;15.90;97.20;;;;;;1721260;28;20246;-76
2022/05/05 06:27:19;;;;;;;10.38;9.38;;;15.90;97.20;;;;;;1721253;28;20247;-75
2022/05/05 06:28:10;;;;;;;9.60;8.80;;;16.00;97.20;;;;;;1720880;28;20227;-76
2022/05/05 06:29:02;;;;;;;9.80;8.90;;;16.00;97.20;;;;;;1721248;28;20220;-76
2022/05/05 06:29:53;;;;;;;9.60;8.80;;;16.00;97.20;;;;;;1721100;28;20691;-75
2022/05/05 06:30:44;;;;;;;9.67;8.80;;;16.10;97.20;;;;;;1721036;28;20657;-76
2022/05/05 06:31:35;;;;;;;9.43;8.73;;;16.10;97.20;;;;;;1721138;28;20197;-76
2022/05/05 06:32:27;;;;;;;9.13;8.43;;;16.20;97.20;;;;;;1720910;28;20197;-75
2022/05/05 06:33:17;;;;;;;9.90;9.20;;;16.30;97.20;;;;;;1721286;28;20646;-76
2022/05/05 06:34:10;;;;;;;9.67;8.87;;;16.30;97.20;;;;;;1721141;28;20582;-76
2022/05/05 06:35:01;;;;;;;9.40;8.70;;;16.40;97.20;;;;;;1721260;28;20565;-76
2022/05/05 06:35:53;;;;;;;10.10;9.20;;;16.50;97.20;;;;;;1721252;28;20816;-75
2022/05/05 06:36:44;;;;;;;9.77;8.77;;;16.50;97.20;;;;;;1721206;28;20498;-76
2022/05/05 06:37:36;;;;;;;9.23;8.43;;;16.50;97.20;;;;;;1721171;28;20205;-75
2022/05/05 06:38:26;;;;;;;8.63;8.02;;;16.50;97.20;;;;;;1720723;28;20452;-75
2022/05/05 06:39:18;;;;;;;9.90;9.10;;;16.60;97.20;;;;;;1721106;28;20211;-76
2022/05/05 06:40:09;;;;;;;8.98;8.23;;;16.60;97.20;;;;;;1721207;28;20208;-76
2022/05/05 06:41:01;;;;;;;9.80;9.00;;;16.60;97.20;;;;;;1721178;28;20201;-76
2022/05/05 06:41:52;;;;;;;9.68;8.88;;;16.60;97.20;;;;;;1721065;28;20225;-76
2022/05/05 06:42:44;;;;;;;9.10;8.20;;;16.60;97.20;;;;;;1721089;28;20201;-75
2022/05/05 06:43:35;;;;;;;8.50;7.80;;;16.60;97.20;;;;;;1721193;28;20486;-75
2022/05/05 06:44:27;;;;;;;9.43;8.63;;;16.50;97.20;;;;;;1720814;28;20217;-76
2022/05/05 06:45:17;;;;;;;9.20;8.40;;;16.50;97.20;;;;;;1721238;28;20444;-76
2022/05/05 06:46:09;;;;;;;9.60;8.00;;;16.50;97.20;;;;;;1721326;28;20205;-76
2022/05/05 06:47:00;;;;;;;9.43;8.40;;;16.50;97.20;;;;;;1721312;28;20201;-76
2022/05/05 06:47:53;;;;;;;8.80;7.95;;;16.50;97.20;;;;;;1721059;28;20209;-76
2022/05/05 06:48:44;;;;;;;9.10;8.30;;;16.50;97.20;;;;;;1720888;28;20208;-76
2022/05/05 06:49:37;;;;;;;9.20;8.30;;;16.50;97.20;;;;;;1721102;28;20193;-76
2022/05/05 06:50:28;;;;;;;9.68;8.45;;;16.50;97.20;;;;;;1721100;28;20205;-76
2022/05/05 06:51:20;;;;;;;8.75;8.05;;;16.50;97.20;;;;;;1721181;28;20664;-76
2022/05/05 06:52:11;;;;;;;9.57;8.77;;;16.50;97.20;;;;;;1721020;28;20205;-76
2022/05/05 06:53:03;;;;;;;8.20;7.40;;;16.40;97.20;;;;;;1721129;28;20209;-76
2022/05/05 06:53:54;;;;;;;9.20;8.23;;;16.40;97.20;;;;;;1721092;28;20232;-76
2022/05/05 06:54:45;;;;;;;9.47;8.67;;;16.40;97.20;;;;;;1721911;28;20221;-75
2022/05/05 06:55:36;;;;;;;9.75;8.85;;;16.40;97.20;;;;;;1721140;28;20232;-76
2022/05/05 06:56:29;;;;;;;10.00;9.10;;;16.40;97.20;;;;;;1721156;28;20208;-74
2022/05/05 06:57:19;;;;;;;10.10;9.00;;;16.40;97.20;;;;;;1721018;28;20204;-74
2022/05/05 06:58:11;;;;;;;11.73;8.80;;;16.40;97.20;;;;;;1720751;28;20209;-75
2022/05/05 06:59:02;;;;;;;10.15;9.25;;;16.50;97.20;;;;;;1721136;28;20678;-76
2022/05/05 06:59:54;;;;;;;9.40;8.50;;;16.50;97.20;;;;;;1720977;28;20291;-76
2022/05/05 07:01:55;;;;;;;9.20;8.30;;;16.50;97.20;;;;;;1721129;28;20203;-76
2022/05/05 07:02:46;;;;;;;8.95;8.15;;;16.50;97.20;;;;;;1720939;28;20732;-76
2022/05/05 07:03:37;;;;;;;8.60;7.80;;;16.50;97.20;;;;;;1721112;28;20252;-76
2022/05/05 07:05:40;;;;;;;9.07;8.10;;;16.60;97.20;;;;;;1721063;28;20208;-76
2022/05/05 07:06:31;;;;;;;9.55;8.75;;;16.60;97.20;;;;;;1720841;28;20417;-76
2022/05/05 07:07:22;;;;;;;9.10;8.20;;;16.60;97.20;;;;;;1720635;28;20211;-76
2022/05/05 07:08:13;;;;;;;8.80;7.87;;;16.60;97.20;;;;;;1719910;28;20205;-77
2022/05/05 07:11:23;;;;;;;8.98;7.97;;;16.60;97.20;;;;;;1714227;28;20229;-77
2022/05/05 07:12:15;;;;;;;8.65;7.90;;;16.60;97.20;;;;;;1714141;28;20238;-77
2022/05/05 07:13:06;;;;;;;9.48;8.50;;;16.60;97.20;;;;;;1714073;28;20240;-77
2022/05/05 07:14:00;;;;;;;9.27;8.48;;;16.60;97.20;;;;;;1714296;28;20204;-77
2022/05/05 07:14:51;;;;;;;8.60;7.90;;;16.60;97.20;;;;;;1714220;28;20692;-77
2022/05/05 07:15:42;;;;;;;9.20;8.30;;;16.60;97.20;;;;;;1714616;28;20562;-76
2022/05/05 07:16:34;;;;;;;9.60;8.60;;;16.60;97.20;;;;;;1714282;28;20241;-76
2022/05/05 07:17:27;;;;;;;9.00;8.20;;;16.60;97.20;;;;;;1714218;28;20212;-76
2022/05/05 07:18:18;;;;;;;9.38;8.50;;;16.60;97.20;;;;;;1714001;28;20202;-76
2022/05/05 07:19:10;;;;;;;9.88;8.98;;;16.60;97.20;;;;;;1714119;28;20257;-76
2022/05/05 07:20:01;;;;;;;9.93;8.85;;;16.70;97.20;;;;;;1714176;28;20240;-77
2022/05/05 07:20:54;;;;;;;10.13;9.13;;;16.70;97.20;;;;;;1714182;28;20653;-76
2022/05/05 07:21:45;;;;;;;8.82;8.00;;;16.70;97.20;;;;;;1714170;28;20233;-76
2022/05/05 07:22:36;;;;;;;9.70;8.83;;;16.70;97.20;;;;;;1714174;28;20200;-75
2022/05/05 07:23:27;;;;;;;10.32;9.20;;;16.70;97.20;;;;;;1714092;28;20248;-75
2022/05/05 07:24:19;;;;;;;9.87;8.97;;;16.70;97.20;;;;;;1715349;28;20220;-76
2022/05/05 07:25:10;;;;;;;9.20;8.30;;;16.70;97.20;;;;;;1720485;28;20212;-75
2022/05/05 07:26:01;;;;;;;9.57;8.63;;;16.70;97.20;;;;;;1720795;28;20228;-75
2022/05/05 07:26:52;;;;;;;9.60;8.70;;;16.70;97.20;;;;;;1720211;28;20201;-76
2022/05/05 07:27:44;;;;;;;9.20;8.40;;;16.70;97.20;;;;;;1720818;28;20205;-76
2022/05/05 07:28:36;;;;;;;10.05;9.05;;;16.70;97.20;;;;;;1720518;28;20229;-76
2022/05/05 07:29:27;;;;;;;9.98;9.18;;;16.70;97.20;;;;;;1720188;28;20280;-76
2022/05/05 07:30:19;;;;;;;10.27;9.37;;;16.70;97.20;;;;;;1720648;28;20200;-76
2022/05/05 07:31:10;;;;;;;10.43;9.52;;;16.70;97.20;;;;;;1720803;28;20459;-76
2022/05/05 07:32:01;;;;;;;10.82;9.80;;;16.70;97.20;;;;;;1720718;28;20197;-76
2022/05/05 07:32:53;;;;;;;10.60;9.60;;;16.70;97.20;;;;;;1720751;28;20288;-76
2022/05/05 07:33:44;;;;;;;10.10;9.20;;;16.80;97.20;;;;;;1720711;28;20444;-76
2022/05/05 07:34:36;;;;;;;10.07;9.07;;;16.80;97.20;;;;;;1720689;28;20221;-76
2022/05/05 07:35:26;;;;;;;10.27;9.38;;;16.80;97.20;;;;;;1720831;28;20205;-76
2022/05/05 07:36:19;;;;;;;10.90;9.90;;;16.80;97.20;;;;;;1720842;28;20201;-76
2022/05/05 07:37:10;;;;;;;10.82;9.93;;;16.80;97.20;;;;;;1720753;28;20232;-75
2022/05/05 07:38:02;;;;;;;11.93;10.57;;;16.80;97.20;;;;;;1720626;28;20212;-76
2022/05/05 07:38:52;;;;;;;10.52;9.52;;;16.90;97.20;;;;;;1720571;28;20578;-76
2022/05/05 07:39:44;;;;;;;11.07;10.10;;;16.90;97.20;;;;;;1719725;28;20241;-75
2022/05/05 07:40:35;;;;;;;11.43;10.40;;;16.90;97.20;;;;;;1720720;28;20566;-75
2022/05/05 07:41:27;;;;;;;10.77;9.80;;;17.00;97.20;;;;;;1720394;28;20278;-75
2022/05/05 07:42:17;;;;;;;11.27;10.25;;;17.00;97.20;;;;;;1720139;28;20448;-76
2022/05/05 07:43:10;;;;;;;10.67;9.57;;;17.00;97.20;;;;;;1717554;28;20321;-75
2022/05/05 07:44:01;;;;;;;11.75;10.65;;;17.10;97.20;;;;;;1714033;28;20332;-75
2022/05/05 07:44:53;;;;;;;11.05;10.05;;;17.10;97.20;;;;;;1713945;28;20194;-75
2022/05/05 07:45:44;;;;;;;10.75;9.85;;;17.10;97.20;;;;;;1718222;28;20216;-76
2022/05/05 07:46:36;;;;;;;11.20;10.10;;;17.10;97.20;;;;;;1720066;28;20738;-76
2022/05/05 07:47:26;;;;;;;11.30;10.30;;;17.10;97.20;;;;;;1720130;28;20678;-76
2022/05/05 07:48:19;;;;;;;11.30;10.40;;;17.20;97.20;;;;;;1720001;28;20361;-75
2022/05/05 07:49:10;;;;;;;13.32;11.13;;;17.20;97.20;;;;;;1719995;28;20448;-76
2022/05/05 07:50:03;;;;;;;11.50;10.32;;;17.20;97.20;;;;;;1720594;28;20543;-75
2022/05/05 07:50:53;;;;;;;11.77;10.88;;;17.20;97.20;;;;;;1720672;28;20213;-75
2022/05/05 07:51:50;;;;;;;12.80;11.60;;;17.20;97.20;;;;;;1720743;28;20232;-76
2022/05/05 07:52:41;;;;;;;12.50;9.88;;;17.20;97.20;;;;;;1720735;28;20205;-76
2022/05/05 07:53:32;;;;;;;12.90;11.70;;;17.20;97.20;;;;;;1720630;28;20284;-76
2022/05/05 07:54:36;;;;;;;12.27;11.27;;;17.20;97.20;;;;;;1720566;28;20225;-75
2022/05/05 07:55:28;;;;;;;11.48;10.55;;;17.10;97.20;;;;;;1720639;28;20232;-76
2022/05/05 07:56:18;;;;;;;12.30;11.20;;;17.10;97.20;;;;;;1720608;28;20209;-75
2022/05/05 07:57:12;;;;;;;10.63;9.70;;;17.10;97.20;;;;;;1720455;28;20296;-76
2022/05/05 07:58:04;;;;;;;11.93;10.93;;;17.10;97.20;;;;;;1719270;28;20209;-76
2022/05/05 07:58:55;;;;;;;12.00;10.80;;;17.10;97.20;;;;;;1720537;28;20664;-75
2022/05/05 07:59:48;;;;;;;12.13;11.03;;;17.10;97.20;;;;;;1720597;28;20618;-76
2022/05/05 08:00:40;;;;;;;12.35;11.20;;;17.10;97.20;;;;;;1720655;28;20201;-75
2022/05/05 08:01:31;;;;;;;11.55;10.52;;;17.10;97.20;;;;;;1720484;28;20283;-75
2022/05/05 08:02:23;;;;;;;12.23;11.13;;;17.10;97.20;;;;;;1720709;28;20205;-75
2022/05/05 08:03:14;;;;;;;10.90;9.90;;;17.10;97.20;;;;;;1720604;28;20444;-75
2022/05/05 08:04:09;;;;;;;11.73;10.63;;;17.10;97.20;;;;;;1720561;28;20205;-75
2022/05/05 08:05:00;;;;;;;12.50;11.38;;;17.10;97.20;;;;;;1720573;28;20499;-75
2022/05/05 08:05:51;;;;;;;11.73;10.63;;;17.10;97.20;;;;;;1720488;28;20220;-75
2022/05/05 08:06:43;;;;;;;11.00;10.00;;;17.10;97.20;;;;;;1720640;28;20201;-75
2022/05/05 08:07:40;;;;;;;12.07;10.90;;;17.20;97.20;;;;;;1720551;28;20201;-75
2022/05/05 08:08:31;;;;;;;11.70;10.70;;;17.20;97.20;;;;;;1720232;28;20680;-75
2022/05/05 08:09:22;;;;;;;12.47;10.43;;;17.20;97.20;;;;;;1720630;28;20634;-75
2022/05/05 08:10:13;;;;;;;11.30;10.40;;;17.20;97.20;;;;;;1720578;28;20452;-75
2022/05/05 08:11:05;;;;;;;12.37;11.30;;;17.30;97.20;;;;;;1720423;28;20197;-76
2022/05/05 08:11:56;;;;;;;12.38;11.27;;;17.30;97.20;;;;;;1720132;28;20815;-76
2022/05/05 08:12:48;;;;;;;11.50;10.50;;;17.30;97.20;;;;;;1720143;28;20193;-75
2022/05/05 08:13:39;;;;;;;12.27;10.98;;;17.40;97.20;;;;;;1717474;28;20484;-75
2022/05/05 08:14:31;;;;;;;12.87;11.77;;;17.40;97.20;;;;;;1719964;28;20221;-75
2022/05/05 08:15:22;;;;;;;12.75;11.65;;;17.40;97.20;;;;;;1720485;28;20204;-75
2022/05/05 08:16:14;;;;;;;12.73;11.60;;;17.40;97.20;;;;;;1716197;28;20201;-76
2022/05/05 08:17:05;;;;;;;13.57;12.40;;;17.40;97.20;;;;;;1717019;28;20220;-75
2022/05/05 08:17:56;;;;;;;12.60;11.43;;;17.40;97.20;;;;;;1720532;28;20288;-75
2022/05/05 08:18:47;;;;;;;11.93;10.93;;;17.50;97.20;;;;;;1720127;28;20242;-75
2022/05/05 08:19:39;;;;;;;13.90;12.60;;;17.50;97.20;;;;;;1720307;28;20221;-75
2022/05/05 08:20:30;;;;;;;12.32;11.23;;;17.50;97.20;;;;;;1720553;28;20715;-75
2022/05/05 08:21:21;;;;;;;14.97;13.57;;;17.50;97.20;;;;;;1720549;28;20622;-75
2022/05/05 08:22:13;;;;;;;13.02;11.73;;;17.50;97.20;;;;;;1720389;28;20483;-75
2022/05/05 08:23:05;;;;;;;12.00;11.00;;;17.50;97.20;;;;;;1720572;28;20205;-76
2022/05/05 08:28:33;;;;;;;12.20;11.13;;;17.50;97.20;;;;;;1719976;28;20221;-74
2022/05/05 08:29:24;;;;;;;11.52;10.52;;;17.50;97.20;;;;;;1720363;28;20233;-75
2022/05/05 08:30:16;;;;;;;12.20;11.20;;;17.50;97.20;;;;;;1720563;28;20619;-75
2022/05/05 08:31:07;;;;;;;12.98;11.23;;;17.60;97.20;;;;;;1721316;28;20686;-75
2022/05/05 08:32:00;;;;;;;11.10;10.20;;;17.60;97.20;;;;;;1720465;28;20189;-75
2022/05/05 08:32:50;;;;;;;12.70;11.70;;;17.60;97.20;;;;;;1720487;28;20245;-75
2022/05/05 08:33:42;;;;;;;13.07;11.97;;;17.50;97.20;;;;;;1720628;28;20201;-75
2022/05/05 08:34:33;;;;;;;13.70;12.50;;;17.50;97.20;;;;;;1720267;28;20315;-75
2022/05/05 08:35:27;;;;;;;14.35;13.05;;;17.50;97.20;;;;;;1720478;28;20904;-75
2022/05/05 08:36:19;;;;;;;12.45;11.25;;;17.50;97.20;;;;;;1720184;28;20205;-75
2022/05/05 08:37:10;;;;;;;11.93;10.90;;;17.50;97.20;;;;;;1720513;28;20216;-75
2022/05/05 08:38:01;;;;;;;13.30;11.00;;;17.50;97.20;;;;;;1720356;28;20279;-76
2022/05/05 08:38:53;;;;;;;12.57;11.43;;;17.50;97.20;;;;;;1720320;28;20208;-75
2022/05/05 08:39:45;;;;;;;12.90;11.80;;;17.50;97.20;;;;;;1721360;28;20221;-75
2022/05/05 08:40:40;;;;;;;11.60;10.60;;;17.50;97.20;;;;;;1721127;28;20204;-75
2022/05/05 08:41:31;;;;;;;12.50;11.45;;;17.50;97.20;;;;;;1721552;28;20243;-75
2022/05/05 08:42:24;;;;;;;13.30;11.90;;;17.50;97.20;;;;;;1721967;28;20212;-76
2022/05/05 08:43:16;;;;;;;12.77;11.68;;;17.50;97.20;;;;;;1721788;28;20208;-75
2022/05/05 08:44:07;;;;;;;12.50;11.27;;;17.50;97.20;;;;;;1721734;28;20205;-75
2022/05/05 08:45:00;;;;;;;12.60;11.60;;;17.50;97.20;;;;;;1721730;28;20275;-75
2022/05/05 08:45:53;;;;;;;12.85;11.55;;;17.50;97.20;;;;;;1721748;28;20262;-75
2022/05/05 08:46:47;;;;;;;11.88;10.68;;;17.50;97.20;;;;;;1721912;28;20205;-75
2022/05/05 08:47:39;;;;;;;12.95;11.75;;;17.50;97.20;;;;;;1721523;28;20251;-75
2022/05/05 08:48:32;;;;;;;14.43;13.02;;;17.50;97.20;;;;;;1721392;28;20197;-75
2022/05/05 08:49:23;;;;;;;13.43;12.13;;;17.50;97.20;;;;;;1721871;28;20244;-75
2022/05/05 08:50:15;;;;;;;13.43;12.17;;;17.40;97.20;;;;;;1721803;28;20212;-75
2022/05/05 08:51:09;;;;;;;13.48;12.23;;;17.40;97.20;;;;;;1721727;28;20448;-75
2022/05/05 08:52:04;;;;;;;13.35;12.05;;;17.40;97.20;;;;;;1721810;28;20561;-75
2022/05/05 08:52:55;;;;;;;13.32;12.13;;;17.40;97.20;;;;;;1721732;28;20200;-75
2022/05/05 08:53:53;;;;;;;13.68;12.38;;;17.30;97.20;;;;;;1722075;28;20652;-75
2022/05/05 08:54:48;;;;;;;13.05;11.95;;;17.20;97.20;;;;;;1722319;28;20696;-76
2022/05/05 08:55:40;;;;;;;13.30;12.10;;;17.20;97.20;;;;;;1721944;28;20224;-75
2022/05/05 08:56:30;;;;;;;11.77;10.77;;;17.10;97.20;;;;;;1721809;28;20263;-74
2022/05/05 08:57:22;;;;;;;13.50;12.30;;;17.10;97.20;;;;;;1721871;28;20209;-75
2022/05/05 08:58:13;;;;;;;14.07;12.48;;;17.00;97.20;;;;;;1721416;28;20243;-75
2022/05/05 08:59:07;;;;;;;14.23;12.83;;;17.00;97.20;;;;;;1721883;28;20660;-75
2022/05/05 08:59:58;;;;;;;12.63;11.52;;;17.00;97.20;;;;;;1721589;28;20256;-75
2022/05/05 09:00:52;;;;;;;14.50;13.00;;;17.00;97.20;;;;;;1721793;28;20197;-75
2022/05/05 09:01:44;;;;;;;13.77;12.55;;;17.00;97.20;;;;;;1721790;28;20201;-75
2022/05/05 09:02:36;;;;;;;13.35;12.15;;;17.00;97.20;;;;;;1721780;28;20657;-75
2022/05/05 09:03:27;;;;;;;15.07;13.68;;;16.90;97.20;;;;;;1718676;28;20212;-75
2022/05/05 09:04:19;;;;;;;14.63;13.43;;;16.90;97.20;;;;;;1721025;28;20216;-75
2022/05/05 09:05:12;;;;;;;15.02;13.73;;;16.80;97.20;;;;;;1721611;28;20628;-75
2022/05/05 09:06:04;;;;;;;14.65;13.35;;;16.80;97.20;;;;;;1721661;28;20216;-75
2022/05/05 09:06:56;;;;;;;14.98;13.50;;;16.80;97.20;;;;;;1721667;28;20202;-75
2022/05/05 09:07:48;;;;;;;14.75;13.45;;;16.70;97.20;;;;;;1721673;28;20201;-75
2022/05/05 09:08:40;;;;;;;13.50;12.20;;;16.70;97.20;;;;;;1721400;28;20201;-75
2022/05/05 09:09:32;;;;;;;13.80;12.30;;;16.70;97.20;;;;;;1721467;28;20252;-75
2022/05/05 09:10:42;;;;;;;12.88;11.77;;;16.70;97.20;;;;;;1721726;28;20201;-75
2022/05/05 09:11:33;;;;;;;13.50;12.30;;;16.70;97.20;;;;;;1721645;28;20719;-75
2022/05/05 09:12:25;;;;;;;14.10;12.90;;;16.70;97.20;;;;;;1721390;28;20580;-75
2022/05/05 09:13:21;;;;;;;14.13;12.77;;;16.70;97.20;;;;;;1721256;28;20568;-75
2022/05/05 09:14:12;;;;;;;15.00;13.68;;;16.80;97.20;;;;;;1720975;28;20782;-75
2022/05/05 09:15:09;;;;;;;16.38;14.80;;;16.80;97.20;;;;;;1721150;28;20921;-75
2022/05/05 09:16:02;;;;;;;15.80;14.40;;;16.80;97.20;;;;;;1721586;28;20209;-75
2022/05/05 09:16:52;;;;;;;15.70;14.10;;;16.80;97.20;;;;;;1721618;28;20340;-75
2022/05/05 09:17:44;;;;;;;15.13;13.77;;;16.80;97.20;;;;;;1721748;28;20205;-75
2022/05/05 09:18:35;;;;;;;15.45;13.95;;;16.80;97.20;;;;;;1721068;28;20212;-75
2022/05/05 09:19:27;;;;;;;15.67;14.37;;;16.80;97.20;;;;;;1720962;28;20209;-75
2022/05/05 09:20:18;;;;;;;15.80;14.43;;;16.80;97.20;;;;;;1720433;28;20683;-75
2022/05/05 09:21:09;;;;;;;15.75;14.35;;;16.70;97.20;;;;;;1720679;28;20223;-75
2022/05/05 09:22:03;;;;;;;14.73;13.33;;;16.70;97.20;;;;;;1720662;28;20198;-75
2022/05/05 09:22:54;;;;;;;17.85;15.93;;;16.70;97.20;;;;;;1720747;28;20520;-77
2022/05/05 09:24:53;;;;;;;16.48;15.07;;;16.70;97.20;;;;;;1718882;28;20272;-77
2022/05/05 09:25:47;;;;;;;14.80;13.40;;;16.70;97.20;;;;;;1716620;28;20556;-77
2022/05/05 09:26:38;;;;;;;15.77;14.32;;;16.70;97.20;;;;;;1716955;28;20355;-77
2022/05/05 09:27:32;;;;;;;14.63;13.02;;;16.70;97.20;;;;;;1718261;28;20233;-77
2022/05/05 09:28:23;;;;;;;16.95;14.80;;;16.70;97.20;;;;;;1717261;28;20197;-77
2022/05/05 09:29:19;;;;;;;14.27;13.05;;;16.70;97.20;;;;;;1717027;28;20581;-76
2022/05/05 09:30:13;;;;;;;15.30;13.98;;;16.60;97.20;;;;;;1718810;28;20197;-76
2022/05/05 09:31:06;;;;;;;16.70;15.25;;;16.60;97.20;;;;;;1721042;28;20297;-77
2022/05/05 09:31:57;;;;;;;15.02;13.63;;;16.60;97.20;;;;;;1721376;28;20305;-76
2022/05/05 09:32:48;;;;;;;14.55;13.20;;;16.60;97.20;;;;;;1721298;28;20197;-76
2022/05/05 09:33:43;;;;;;;15.07;13.20;;;16.60;97.20;;;;;;1721320;28;20198;-76
2022/05/05 09:34:36;;;;;;;15.57;14.20;;;16.60;97.20;;;;;;1721155;28;20968;-76
2022/05/05 09:35:28;;;;;;;15.20;13.77;;;16.60;97.20;;;;;;1721150;28;20223;-76
2022/05/05 09:36:26;;;;;;;15.32;13.93;;;16.60;97.20;;;;;;1718870;28;20791;-76
2022/05/05 09:37:21;;;;;;;16.85;15.32;;;16.50;97.20;;;;;;1721204;28;20240;-76
2022/05/05 09:38:12;;;;;;;15.80;14.35;;;16.50;97.20;;;;;;1720526;28;20220;-77
2022/05/05 09:39:08;;;;;;;17.42;15.93;;;16.50;97.20;;;;;;1721234;28;20205;-76